createdAt,value
2018-12-12T00:00:28.180Z,7.00
2018-12-12T00:01:28.153Z,7.70
2018-12-12T00:02:28.116Z,7.60
2018-12-12T00:03:28.092Z,7.30
2018-12-12T00:04:28.114Z,7.70
2018-12-12T00:05:28.068Z,7.40
2018-12-12T00:06:28.095Z,7.50
2018-12-12T00:07:28.050Z,8.10
2018-12-12T00:08:28.071Z,8.40
2018-12-12T00:09:28.053Z,7.70
2018-12-12T00:10:28.014Z,8.00
2018-12-12T00:11:28.032Z,7.90
2018-12-12T00:12:28.053Z,7.80
2018-12-12T00:13:28.005Z,7.50
2018-12-12T00:14:27.983Z,7.40
2018-12-12T00:15:27.961Z,7.50
2018-12-12T00:16:27.959Z,7.60
2018-12-12T00:17:27.955Z,8.00
2018-12-12T00:18:27.925Z,7.90
2018-12-12T00:19:27.952Z,7.70
2018-12-12T00:20:27.903Z,8.10
2018-12-12T00:21:27.898Z,9.80
2018-12-12T00:22:27.975Z,9.10
2018-12-12T00:23:27.879Z,8.40
2018-12-12T00:24:27.901Z,8.40
2018-12-12T00:25:27.857Z,9.10
2018-12-12T00:26:27.839Z,8.60
2018-12-12T00:27:27.875Z,8.00
2018-12-12T00:28:27.828Z,8.30
2018-12-12T00:29:27.813Z,8.30
2018-12-12T00:30:27.845Z,8.10
2018-12-12T00:31:27.822Z,7.50
2018-12-12T00:32:27.843Z,8.30
2018-12-12T00:33:27.764Z,7.70
2018-12-12T00:34:27.810Z,7.20
2018-12-12T00:35:27.746Z,7.70
2018-12-12T00:36:27.750Z,7.40
2018-12-12T00:37:27.723Z,7.20
2018-12-12T00:38:27.709Z,7.40
2018-12-12T00:39:27.766Z,7.00
2018-12-12T00:40:27.688Z,7.20
2018-12-12T00:41:27.678Z,7.20
2018-12-12T00:42:27.727Z,7.70
2018-12-12T00:43:27.662Z,7.10
2018-12-12T00:44:27.652Z,8.00
2018-12-12T00:45:27.639Z,8.70
2018-12-12T00:46:28.426Z,8.10
2018-12-12T00:47:27.647Z,7.90
2018-12-12T00:48:27.598Z,7.80
2018-12-12T00:49:27.617Z,8.40
2018-12-12T00:50:27.581Z,8.30
2018-12-12T00:51:27.602Z,8.60
2018-12-12T00:52:27.594Z,8.30
2018-12-12T00:53:27.549Z,8.60
2018-12-12T00:54:27.554Z,8.90
2018-12-12T00:55:27.535Z,8.90
2018-12-12T00:56:27.544Z,8.90
2018-12-12T00:57:27.511Z,9.40
2018-12-12T00:58:27.499Z,9.10
2018-12-12T00:59:27.513Z,9.00
2018-12-12T01:00:27.474Z,9.20
2018-12-12T01:01:27.507Z,9.50
2018-12-12T01:02:27.504Z,9.40
2018-12-12T01:03:27.439Z,9.50
2018-12-12T01:04:27.430Z,9.30
2018-12-12T01:05:27.458Z,9.80
2018-12-12T01:06:27.405Z,9.40
2018-12-12T01:07:27.400Z,8.90
2018-12-12T01:08:27.384Z,9.60
2018-12-12T01:09:27.449Z,9.30
2018-12-12T01:10:27.364Z,8.90
2018-12-12T01:11:27.347Z,8.70
2018-12-12T01:12:27.380Z,9.80
2018-12-12T01:13:27.343Z,8.80
2018-12-12T01:14:27.363Z,8.40
2018-12-12T01:15:27.353Z,9.40
2018-12-12T01:16:27.295Z,8.90
2018-12-12T01:17:27.287Z,9.40
2018-12-12T01:18:27.286Z,9.00
2018-12-12T01:19:27.263Z,9.00
2018-12-12T01:20:27.289Z,9.10
2018-12-12T01:21:27.246Z,8.60
2018-12-12T01:22:27.232Z,8.50
2018-12-12T01:23:27.226Z,9.00
2018-12-12T01:24:27.259Z,8.40
2018-12-12T01:25:27.937Z,9.90
2018-12-12T01:26:27.260Z,9.00
2018-12-12T01:27:27.189Z,8.80
2018-12-12T01:28:27.170Z,9.30
2018-12-12T01:29:27.167Z,8.60
2018-12-12T01:30:27.184Z,8.40
2018-12-12T01:31:27.148Z,8.70
2018-12-12T01:32:27.161Z,8.20
2018-12-12T01:33:27.113Z,9.10
2018-12-12T01:34:27.119Z,9.40
2018-12-12T01:35:27.092Z,9.70
2018-12-12T01:36:27.114Z,9.30
2018-12-12T01:37:27.126Z,9.30
2018-12-12T01:38:27.065Z,9.30
2018-12-12T01:39:27.048Z,9.70
2018-12-12T01:40:27.036Z,9.90
2018-12-12T01:41:27.041Z,9.70
2018-12-12T01:42:27.054Z,10.00
2018-12-12T01:43:27.004Z,9.20
2018-12-12T01:44:26.995Z,10.30
2018-12-12T01:45:27.015Z,9.20
2018-12-12T01:46:27.018Z,9.30
2018-12-12T01:47:26.968Z,8.60
2018-12-12T01:48:26.981Z,8.90
2018-12-12T01:49:26.942Z,8.70
2018-12-12T01:50:26.932Z,9.30
2018-12-12T01:51:26.955Z,9.20
2018-12-12T01:52:26.938Z,9.40
2018-12-12T01:53:26.894Z,9.00
2018-12-12T01:54:26.892Z,9.50
2018-12-12T01:55:26.883Z,8.50
2018-12-12T01:56:26.868Z,8.90
2018-12-12T01:57:26.879Z,9.10
2018-12-12T01:58:26.902Z,9.40
2018-12-12T01:59:26.861Z,8.60
2018-12-12T02:00:26.818Z,8.70
2018-12-12T02:01:26.811Z,8.70
2018-12-12T02:02:26.800Z,8.30
2018-12-12T02:03:26.787Z,8.70
2018-12-12T02:04:26.807Z,8.80
2018-12-12T02:05:26.768Z,9.40
2018-12-12T02:06:26.758Z,9.20
2018-12-12T02:07:26.777Z,7.90
2018-12-12T02:08:26.743Z,7.70
2018-12-12T02:09:26.723Z,8.50
2018-12-12T02:10:26.718Z,8.40
2018-12-12T02:11:26.708Z,8.50
2018-12-12T02:12:26.729Z,8.50
2018-12-12T02:13:26.679Z,9.00
2018-12-12T02:14:26.674Z,8.50
2018-12-12T02:15:26.658Z,8.40
2018-12-12T02:16:26.681Z,9.20
2018-12-12T02:17:26.637Z,9.00
2018-12-12T02:18:26.636Z,8.80
2018-12-12T02:19:26.616Z,9.20
2018-12-12T02:20:26.607Z,8.60
2018-12-12T02:21:26.644Z,8.90
2018-12-12T02:22:26.632Z,9.40
2018-12-12T02:23:26.575Z,9.50
2018-12-12T02:24:26.601Z,8.90
2018-12-12T02:25:26.553Z,8.80
2018-12-12T02:26:26.575Z,9.10
2018-12-12T02:27:26.534Z,9.20
2018-12-12T02:28:26.517Z,9.20
2018-12-12T02:29:26.508Z,9.50
2018-12-12T02:30:26.519Z,9.40
2018-12-12T02:31:26.521Z,8.90
2018-12-12T02:32:26.483Z,8.60
2018-12-12T02:33:26.466Z,8.60
2018-12-12T02:34:26.456Z,9.00
2018-12-12T02:35:26.447Z,9.20
2018-12-12T02:36:26.492Z,8.60
2018-12-12T02:37:26.425Z,8.90
2018-12-12T02:38:26.501Z,9.00
2018-12-12T02:39:26.407Z,8.70
2018-12-12T02:40:26.392Z,8.80
2018-12-12T02:41:26.383Z,8.60
2018-12-12T02:42:26.376Z,9.30
2018-12-12T02:43:26.404Z,8.80
2018-12-12T02:44:26.370Z,8.30
2018-12-12T02:45:26.365Z,8.40
2018-12-12T02:46:26.321Z,8.30
2018-12-12T02:47:26.314Z,8.60
2018-12-12T02:48:26.366Z,8.70
2018-12-12T02:49:26.291Z,8.80
2018-12-12T02:50:26.284Z,9.50
2018-12-12T02:51:26.305Z,8.70
2018-12-12T02:52:26.258Z,8.70
2018-12-12T02:53:26.252Z,8.70
2018-12-12T02:54:26.253Z,8.10
2018-12-12T02:55:26.261Z,8.50
2018-12-12T02:56:26.220Z,8.60
2018-12-12T02:57:26.212Z,8.80
2018-12-12T02:58:26.198Z,8.60
2018-12-12T02:59:26.226Z,8.50
2018-12-12T03:00:26.173Z,8.20
2018-12-12T03:01:26.181Z,8.70
2018-12-12T03:02:26.209Z,8.90
2018-12-12T03:03:26.181Z,8.70
2018-12-12T03:04:26.135Z,8.40
2018-12-12T03:05:26.171Z,8.30
2018-12-12T03:06:26.110Z,8.90
2018-12-12T03:07:26.094Z,8.80
2018-12-12T03:08:26.088Z,9.20
2018-12-12T03:09:26.943Z,9.00
2018-12-12T03:10:26.072Z,9.80
2018-12-12T03:11:26.058Z,9.70
2018-12-12T03:12:26.048Z,9.60
2018-12-12T03:13:26.035Z,9.00
2018-12-12T03:14:26.058Z,9.50
2018-12-12T03:15:26.005Z,9.90
2018-12-12T03:16:26.033Z,8.80
2018-12-12T03:17:25.990Z,9.40
2018-12-12T03:18:26.022Z,10.20
2018-12-12T03:19:25.966Z,10.30
2018-12-12T03:20:25.989Z,11.00
2018-12-12T03:21:25.947Z,10.10
2018-12-12T03:22:25.955Z,10.10
2018-12-12T03:23:25.934Z,10.10
2018-12-12T03:24:25.913Z,9.50
2018-12-12T03:25:25.967Z,9.30
2018-12-12T03:26:25.890Z,9.40
2018-12-12T03:27:25.874Z,9.10
2018-12-12T03:28:25.898Z,9.10
2018-12-12T03:29:25.859Z,8.70
2018-12-12T03:30:25.868Z,8.70
2018-12-12T03:31:25.860Z,8.60
2018-12-12T03:32:25.870Z,8.70
2018-12-12T03:33:25.812Z,9.90
2018-12-12T03:34:25.855Z,9.20
2018-12-12T03:35:25.794Z,9.50
2018-12-12T03:36:25.783Z,9.50
2018-12-12T03:37:25.811Z,10.30
2018-12-12T03:38:25.770Z,10.10
2018-12-12T03:39:25.756Z,9.90
2018-12-12T03:40:25.737Z,9.30
2018-12-12T03:41:25.740Z,10.00
2018-12-12T03:42:25.753Z,8.90
2018-12-12T03:43:25.712Z,10.00
2018-12-12T03:44:25.697Z,9.80
2018-12-12T03:45:25.730Z,9.50
2018-12-12T03:46:25.678Z,9.80
2018-12-12T03:47:25.663Z,9.80
2018-12-12T03:48:25.654Z,10.20
2018-12-12T03:49:25.645Z,10.20
2018-12-12T03:50:25.665Z,10.90
2018-12-12T03:51:25.625Z,10.40
2018-12-12T03:52:25.618Z,9.60
2018-12-12T03:53:25.600Z,10.30
2018-12-12T03:54:25.620Z,10.80
2018-12-12T03:55:25.579Z,10.40
2018-12-12T03:56:25.602Z,10.00
2018-12-12T03:57:25.559Z,10.70
2018-12-12T03:58:25.565Z,9.80
2018-12-12T03:59:25.532Z,9.40
2018-12-12T04:00:25.530Z,9.80
2018-12-12T04:01:25.561Z,9.20
2018-12-12T04:02:25.506Z,10.10
2018-12-12T04:03:25.486Z,10.70
2018-12-12T04:04:25.474Z,11.20
2018-12-12T04:05:25.463Z,9.80
2018-12-12T04:06:25.576Z,10.50
2018-12-12T04:07:25.441Z,10.20
2018-12-12T04:08:25.437Z,9.80
2018-12-12T04:09:25.423Z,10.20
2018-12-12T04:10:25.412Z,10.10
2018-12-12T04:11:25.429Z,10.40
2018-12-12T04:12:25.394Z,10.30
2018-12-12T04:13:25.382Z,10.80
2018-12-12T04:14:25.423Z,11.10
2018-12-12T04:15:25.361Z,10.80
2018-12-12T04:16:25.397Z,11.50
2018-12-12T04:17:25.351Z,10.90
2018-12-12T04:18:25.332Z,11.70
2018-12-12T04:19:25.312Z,10.90
2018-12-12T04:20:25.336Z,11.50
2018-12-12T04:21:25.325Z,11.40
2018-12-12T04:22:25.279Z,11.30
2018-12-12T04:23:25.288Z,11.00
2018-12-12T04:24:25.281Z,11.40
2018-12-12T04:25:25.277Z,11.30
2018-12-12T04:26:25.271Z,12.10
2018-12-12T04:27:25.240Z,11.70
2018-12-12T04:28:25.259Z,11.10
2018-12-12T04:29:25.206Z,12.30
2018-12-12T04:30:25.199Z,12.30
2018-12-12T04:31:25.231Z,11.60
2018-12-12T04:32:25.171Z,12.00
2018-12-12T04:33:25.160Z,11.50
2018-12-12T04:34:25.146Z,11.70
2018-12-12T04:35:25.143Z,12.10
2018-12-12T04:36:25.169Z,11.80
2018-12-12T04:37:25.142Z,11.70
2018-12-12T04:38:25.109Z,11.90
2018-12-12T04:39:25.098Z,12.20
2018-12-12T04:40:25.083Z,12.90
2018-12-12T04:41:25.076Z,12.70
2018-12-12T04:42:25.099Z,12.60
2018-12-12T04:43:25.083Z,12.80
2018-12-12T04:44:25.068Z,12.70
2018-12-12T04:45:25.027Z,12.80
2018-12-12T04:46:25.047Z,11.50
2018-12-12T04:47:25.012Z,12.20
2018-12-12T04:48:25.004Z,11.70
2018-12-12T04:49:24.991Z,12.40
2018-12-12T04:50:25.014Z,12.20
2018-12-12T04:51:24.970Z,12.20
2018-12-12T04:52:24.973Z,11.60
2018-12-12T04:53:24.941Z,12.50
2018-12-12T04:54:24.943Z,12.70
2018-12-12T04:55:24.922Z,12.20
2018-12-12T04:56:24.907Z,12.60
2018-12-12T04:57:24.979Z,13.40
2018-12-12T04:58:24.910Z,12.50
2018-12-12T04:59:24.913Z,12.50
2018-12-12T05:00:24.895Z,13.10
2018-12-12T05:01:24.863Z,12.30
2018-12-12T05:02:24.841Z,12.60
2018-12-12T05:03:24.855Z,11.80
2018-12-12T05:04:24.850Z,12.40
2018-12-12T05:05:24.815Z,12.60
2018-12-12T05:06:24.810Z,13.10
2018-12-12T05:07:24.791Z,13.20
2018-12-12T05:08:24.812Z,13.60
2018-12-12T05:09:24.798Z,12.40
2018-12-12T05:10:24.853Z,13.00
2018-12-12T05:11:24.783Z,13.70
2018-12-12T05:12:24.732Z,15.10
2018-12-12T05:13:24.729Z,15.30
2018-12-12T05:14:24.751Z,15.10
2018-12-12T05:15:24.710Z,13.90
2018-12-12T05:16:24.706Z,14.60
2018-12-12T05:17:24.679Z,14.80
2018-12-12T05:18:24.666Z,14.60
2018-12-12T05:19:24.685Z,15.50
2018-12-12T05:20:24.649Z,14.90
2018-12-12T05:21:24.634Z,15.80
2018-12-12T05:22:24.629Z,15.90
2018-12-12T05:23:24.618Z,16.10
2018-12-12T05:24:24.641Z,14.70
2018-12-12T05:25:24.634Z,102.40
2018-12-12T05:26:24.598Z,113.70
2018-12-12T05:27:24.574Z,23.10
2018-12-12T05:28:24.561Z,18.70
2018-12-12T05:29:24.547Z,16.10
2018-12-12T05:30:24.606Z,16.50
2018-12-12T05:31:24.525Z,15.10
2018-12-12T05:32:24.531Z,14.60
2018-12-12T05:33:24.555Z,15.50
2018-12-12T05:34:24.578Z,15.60
2018-12-12T05:35:24.483Z,14.60
2018-12-12T05:36:24.477Z,15.20
2018-12-12T05:37:24.464Z,15.50
2018-12-12T05:38:24.484Z,14.90
2018-12-12T05:39:24.442Z,15.00
2018-12-12T05:40:24.433Z,14.90
2018-12-12T05:41:24.425Z,16.10
2018-12-12T05:42:24.407Z,17.00
2018-12-12T05:43:24.424Z,16.90
2018-12-12T05:44:24.400Z,17.10
2018-12-12T05:45:24.374Z,17.40
2018-12-12T05:46:24.363Z,16.50
2018-12-12T05:47:24.356Z,16.90
2018-12-12T05:48:24.375Z,17.20
2018-12-12T05:49:24.356Z,18.00
2018-12-12T05:50:24.377Z,17.40
2018-12-12T05:51:24.319Z,16.80
2018-12-12T05:52:24.302Z,15.50
2018-12-12T05:53:24.342Z,16.30
2018-12-12T05:54:24.278Z,15.70
2018-12-12T05:55:24.268Z,16.00
2018-12-12T05:56:24.258Z,15.30
2018-12-12T05:57:24.250Z,16.50
2018-12-12T05:58:24.273Z,16.60
2018-12-12T05:59:24.228Z,15.70
2018-12-12T06:00:24.231Z,15.70
2018-12-12T06:01:24.247Z,15.60
2018-12-12T06:02:24.188Z,16.80
2018-12-12T06:03:24.225Z,17.10
2018-12-12T06:04:24.169Z,18.00
2018-12-12T06:05:24.161Z,38.70
2018-12-12T06:06:24.260Z,20.70
2018-12-12T06:07:24.135Z,19.00
2018-12-12T06:08:24.171Z,19.10
2018-12-12T06:09:24.129Z,19.10
2018-12-12T06:10:24.112Z,18.90
2018-12-12T06:11:24.154Z,18.60
2018-12-12T06:12:24.080Z,18.70
2018-12-12T06:13:24.086Z,18.50
2018-12-12T06:14:24.061Z,18.60
2018-12-12T06:15:24.058Z,20.60
2018-12-12T06:16:24.070Z,19.00
2018-12-12T06:17:24.025Z,19.60
2018-12-12T06:18:24.020Z,19.70
2018-12-12T06:19:24.008Z,19.10
2018-12-12T06:20:23.998Z,19.80
2018-12-12T06:21:24.022Z,19.60
2018-12-12T06:22:23.974Z,19.50
2018-12-12T06:23:23.991Z,18.70
2018-12-12T06:24:23.947Z,20.70
2018-12-12T06:25:23.978Z,22.10
2018-12-12T06:26:23.933Z,21.70
2018-12-12T06:27:23.924Z,23.60
2018-12-12T06:28:23.909Z,23.80
2018-12-12T06:29:23.942Z,23.40
2018-12-12T06:30:23.953Z,23.30
2018-12-12T06:31:23.877Z,23.00
2018-12-12T06:32:23.869Z,20.80
2018-12-12T06:33:23.928Z,21.70
2018-12-12T06:34:23.907Z,19.80
2018-12-12T06:35:23.831Z,20.30
2018-12-12T06:36:23.831Z,20.80
2018-12-12T06:37:23.811Z,20.50
2018-12-12T06:38:23.864Z,21.20
2018-12-12T06:39:23.784Z,20.90
2018-12-12T06:40:23.778Z,20.70
2018-12-12T06:41:23.775Z,19.70
2018-12-12T06:42:23.808Z,18.90
2018-12-12T06:43:23.814Z,18.20
2018-12-12T06:44:23.730Z,19.60
2018-12-12T06:45:23.746Z,18.80
2018-12-12T06:46:23.715Z,19.20
2018-12-12T06:47:23.706Z,20.20
2018-12-12T06:48:23.748Z,19.50
2018-12-12T06:49:23.714Z,19.50
2018-12-12T06:50:23.667Z,19.60
2018-12-12T06:51:23.653Z,19.80
2018-12-12T06:52:23.651Z,19.60
2018-12-12T06:53:23.681Z,19.60
2018-12-12T06:54:23.641Z,19.80
2018-12-12T06:55:23.616Z,20.10
2018-12-12T06:56:23.607Z,20.60
2018-12-12T06:57:23.620Z,20.30
2018-12-12T06:58:23.610Z,20.30
2018-12-12T06:59:23.600Z,19.70
2018-12-12T07:00:23.564Z,20.00
2018-12-12T07:01:23.548Z,19.60
2018-12-12T07:02:23.545Z,20.20
2018-12-12T07:03:23.581Z,18.50
2018-12-12T07:04:23.531Z,20.30
2018-12-12T07:05:23.509Z,22.90
2018-12-12T07:06:23.506Z,21.90
2018-12-12T07:07:23.481Z,20.40
2018-12-12T07:08:23.512Z,21.60
2018-12-12T07:09:23.472Z,19.90
2018-12-12T07:10:23.455Z,19.90
2018-12-12T07:11:23.481Z,19.20
2018-12-12T07:12:23.428Z,19.80
2018-12-12T07:13:23.426Z,20.00
2018-12-12T07:14:23.408Z,131.70
2018-12-12T07:15:23.405Z,147.90
2018-12-12T07:16:23.412Z,150.00
2018-12-12T07:17:23.378Z,27.20
2018-12-12T07:18:23.365Z,20.80
2018-12-12T07:19:23.378Z,21.20
2018-12-12T07:20:23.339Z,21.80
2018-12-12T07:21:23.330Z,20.60
2018-12-12T07:22:23.352Z,21.10
2018-12-12T07:23:23.308Z,22.20
2018-12-12T07:24:23.331Z,20.80
2018-12-12T07:25:23.291Z,21.90
2018-12-12T07:26:23.291Z,20.80
2018-12-12T07:27:23.273Z,21.30
2018-12-12T07:28:23.260Z,21.10
2018-12-12T07:29:23.278Z,21.80
2018-12-12T07:30:23.234Z,22.30
2018-12-12T07:31:23.224Z,22.80
2018-12-12T07:32:25.955Z,53.30
2018-12-12T07:33:23.215Z,41.20
2018-12-12T07:34:23.188Z,29.40
2018-12-12T07:35:23.181Z,22.30
2018-12-12T07:36:23.222Z,22.30
2018-12-12T07:37:23.215Z,21.00
2018-12-12T07:38:23.148Z,21.20
2018-12-12T07:39:23.141Z,21.90
2018-12-12T07:40:23.126Z,22.50
2018-12-12T07:41:23.152Z,20.60
2018-12-12T07:42:23.114Z,20.80
2018-12-12T07:43:23.103Z,20.70
2018-12-12T07:44:23.116Z,21.20
2018-12-12T07:45:23.127Z,22.50
2018-12-12T07:46:23.128Z,20.80
2018-12-12T07:47:23.047Z,19.60
2018-12-12T07:48:23.039Z,19.00
2018-12-12T07:49:23.027Z,19.10
2018-12-12T07:50:23.039Z,19.50
2018-12-12T07:51:23.009Z,19.50
2018-12-12T07:52:22.996Z,20.10
2018-12-12T07:53:22.989Z,18.70
2018-12-12T07:54:23.021Z,18.80
2018-12-12T07:55:22.966Z,18.30
2018-12-12T07:56:23.005Z,17.40
2018-12-12T07:57:22.944Z,17.00
2018-12-12T07:58:22.936Z,17.70
2018-12-12T07:59:22.953Z,18.40
2018-12-12T08:00:22.914Z,16.70
2018-12-12T08:01:22.923Z,16.50
2018-12-12T08:02:22.887Z,16.50
2018-12-12T08:03:22.875Z,16.60
2018-12-12T08:04:22.864Z,17.50
2018-12-12T08:05:22.855Z,17.70
2018-12-12T08:06:22.871Z,17.10
2018-12-12T08:07:22.864Z,18.50
2018-12-12T08:08:22.824Z,19.10
2018-12-12T08:09:22.822Z,18.50
2018-12-12T08:10:22.806Z,18.50
2018-12-12T08:11:22.831Z,18.70
2018-12-12T08:12:22.778Z,20.20
2018-12-12T08:13:22.797Z,19.90
2018-12-12T08:14:22.796Z,37.30
2018-12-12T08:15:22.745Z,46.40
2018-12-12T08:16:22.857Z,50.40
2018-12-12T08:17:22.796Z,43.80
2018-12-12T08:18:22.713Z,20.90
2018-12-12T08:19:22.739Z,19.50
2018-12-12T08:20:22.729Z,92.40
2018-12-12T08:21:22.682Z,75.40
2018-12-12T08:22:22.701Z,25.50
2018-12-12T08:23:22.702Z,20.10
2018-12-12T08:24:22.650Z,21.60
2018-12-12T08:25:22.649Z,28.90
2018-12-12T08:26:22.662Z,21.90
2018-12-12T08:27:22.616Z,20.70
2018-12-12T08:28:22.605Z,22.00
2018-12-12T08:29:22.712Z,20.70
2018-12-12T08:30:22.590Z,19.90
2018-12-12T08:31:22.635Z,20.10
2018-12-12T08:32:22.567Z,19.40
2018-12-12T08:33:22.559Z,19.70
2018-12-12T08:34:22.535Z,19.10
2018-12-12T08:35:22.580Z,18.20
2018-12-12T08:36:22.586Z,18.50
2018-12-12T08:37:22.505Z,17.90
2018-12-12T08:38:22.589Z,19.00
2018-12-12T08:39:22.481Z,18.30
2018-12-12T08:40:22.506Z,19.10
2018-12-12T08:41:22.500Z,17.70
2018-12-12T08:42:22.456Z,18.10
2018-12-12T08:43:22.460Z,17.50
2018-12-12T08:44:22.451Z,18.00
2018-12-12T08:45:22.417Z,18.20
2018-12-12T08:46:22.988Z,17.90
2018-12-12T08:47:22.398Z,17.60
2018-12-12T08:48:22.422Z,18.40
2018-12-12T08:49:22.391Z,17.80
2018-12-12T08:50:22.363Z,18.40
2018-12-12T08:51:22.355Z,18.60
2018-12-12T08:52:22.355Z,19.30
2018-12-12T08:53:22.395Z,17.90
2018-12-12T08:54:22.318Z,19.40
2018-12-12T08:55:22.313Z,18.20
2018-12-12T08:56:22.298Z,17.80
2018-12-12T08:57:22.289Z,18.10
2018-12-12T08:58:22.308Z,18.10
2018-12-12T08:59:22.266Z,18.70
2018-12-12T09:00:22.293Z,19.00
2018-12-12T09:01:22.261Z,18.30
2018-12-12T09:02:22.300Z,18.00
2018-12-12T09:03:22.222Z,17.50
2018-12-12T09:04:22.212Z,18.40
2018-12-12T09:05:22.303Z,17.30
2018-12-12T09:06:22.658Z,17.00
2018-12-12T09:07:22.194Z,16.90
2018-12-12T09:08:22.163Z,15.60
2018-12-12T09:09:22.156Z,15.90
2018-12-12T09:10:22.622Z,16.20
2018-12-12T09:11:22.648Z,16.30
2018-12-12T09:12:22.200Z,16.70
2018-12-12T09:13:22.109Z,16.60
2018-12-12T09:14:22.099Z,17.60
2018-12-12T09:15:22.092Z,17.50
2018-12-12T09:16:22.083Z,17.90
2018-12-12T09:17:22.102Z,18.20
2018-12-12T09:18:22.059Z,18.40
2018-12-12T09:19:22.074Z,18.40
2018-12-12T09:20:22.052Z,17.80
2018-12-12T09:21:22.034Z,19.50
2018-12-12T09:22:22.020Z,53.60
2018-12-12T09:23:22.027Z,33.70
2018-12-12T09:24:21.992Z,137.50
2018-12-12T09:25:21.980Z,42.20
2018-12-12T09:26:21.989Z,41.40
2018-12-12T09:27:21.994Z,32.00
2018-12-12T09:28:22.014Z,33.50
2018-12-12T09:29:21.953Z,32.60
2018-12-12T09:30:21.945Z,30.30
2018-12-12T09:31:21.941Z,23.90
2018-12-12T09:32:21.910Z,18.50
2018-12-12T09:33:24.888Z,18.70
2018-12-12T09:34:21.884Z,16.90
2018-12-12T09:35:21.893Z,16.60
2018-12-12T09:36:21.866Z,17.50
2018-12-12T09:37:21.852Z,17.20
2018-12-12T09:38:21.885Z,17.00
2018-12-12T09:39:21.862Z,16.10
2018-12-12T09:40:21.820Z,16.00
2018-12-12T09:41:21.856Z,16.80
2018-12-12T09:42:21.918Z,16.60
2018-12-12T09:43:21.785Z,16.00
2018-12-12T09:44:21.779Z,21.40
2018-12-12T09:45:21.951Z,23.80
2018-12-12T09:46:21.786Z,23.00
2018-12-12T09:47:21.749Z,22.30
2018-12-12T09:48:21.743Z,20.00
2018-12-12T09:49:21.795Z,18.90
2018-12-12T09:50:21.766Z,18.00
2018-12-12T09:51:21.705Z,18.10
2018-12-12T09:52:21.710Z,16.20
2018-12-12T09:53:21.708Z,14.70
2018-12-12T09:54:21.701Z,15.10
2018-12-12T09:55:21.728Z,15.60
2018-12-12T09:56:21.643Z,15.80
2018-12-12T09:57:21.647Z,16.40
2018-12-12T09:58:21.629Z,16.40
2018-12-12T09:59:21.650Z,15.00
2018-12-12T10:00:21.643Z,15.00
2018-12-12T10:01:21.624Z,25.40
2018-12-12T10:02:21.578Z,19.80
2018-12-12T10:03:21.569Z,17.40
2018-12-12T10:04:21.596Z,17.60
2018-12-12T10:05:21.545Z,18.20
2018-12-12T10:06:21.534Z,22.10
2018-12-12T10:07:21.526Z,26.00
2018-12-12T10:08:21.512Z,24.30
2018-12-12T10:09:21.534Z,19.30
2018-12-12T10:10:21.504Z,19.90
2018-12-12T10:11:21.517Z,17.70
2018-12-12T10:12:21.508Z,15.70
2018-12-12T10:13:21.457Z,17.60
2018-12-12T10:14:21.997Z,32.10
2018-12-12T10:15:21.468Z,32.00
2018-12-12T10:16:21.438Z,16.40
2018-12-12T10:17:21.423Z,19.10
2018-12-12T10:18:21.406Z,18.40
2018-12-12T10:19:21.393Z,15.50
2018-12-12T10:20:21.428Z,16.30
2018-12-12T10:21:21.386Z,15.60
2018-12-12T10:22:21.466Z,16.30
2018-12-12T10:23:21.350Z,16.40
2018-12-12T10:24:21.352Z,15.90
2018-12-12T10:25:21.375Z,15.80
2018-12-12T10:26:21.324Z,16.60
2018-12-12T10:27:21.343Z,16.10
2018-12-12T10:28:21.300Z,15.70
2018-12-12T10:29:21.284Z,15.40
2018-12-12T10:30:21.316Z,15.50
2018-12-12T10:31:21.264Z,14.40
2018-12-12T10:32:21.289Z,15.70
2018-12-12T10:33:21.240Z,15.10
2018-12-12T10:34:21.260Z,15.90
2018-12-12T10:35:21.217Z,15.60
2018-12-12T10:36:21.211Z,15.30
2018-12-12T10:37:21.199Z,15.40
2018-12-12T10:38:21.322Z,15.30
2018-12-12T10:39:21.176Z,15.30
2018-12-12T10:40:21.160Z,14.50
2018-12-12T10:41:21.190Z,15.30
2018-12-12T10:42:21.216Z,14.80
2018-12-12T10:43:21.225Z,15.60
2018-12-12T10:44:21.136Z,14.20
2018-12-12T10:45:21.105Z,15.20
2018-12-12T10:46:21.120Z,15.20
2018-12-12T10:47:21.108Z,14.70
2018-12-12T10:48:21.078Z,15.00
2018-12-12T10:49:21.061Z,15.90
2018-12-12T10:50:21.051Z,14.70
2018-12-12T10:51:21.075Z,16.10
2018-12-12T10:52:21.032Z,14.80
2018-12-12T10:53:21.046Z,14.80
2018-12-12T10:54:21.126Z,14.70
2018-12-12T10:55:20.995Z,14.70
2018-12-12T10:56:21.020Z,15.00
2018-12-12T10:57:21.002Z,14.50
2018-12-12T10:58:20.968Z,15.20
2018-12-12T10:59:20.951Z,14.70
2018-12-12T11:00:20.943Z,16.00
2018-12-12T11:01:20.964Z,15.20
2018-12-12T11:02:20.917Z,13.50
2018-12-12T11:03:20.909Z,14.30
2018-12-12T11:04:20.902Z,14.90
2018-12-12T11:05:20.936Z,14.50
2018-12-12T11:06:20.907Z,15.00
2018-12-12T11:07:20.870Z,14.80
2018-12-12T11:08:20.871Z,14.30
2018-12-12T11:09:20.886Z,15.00
2018-12-12T11:10:20.837Z,14.00
2018-12-12T11:11:20.829Z,14.00
2018-12-12T11:12:20.808Z,14.20
2018-12-12T11:13:20.805Z,14.00
2018-12-12T11:14:20.865Z,13.50
2018-12-12T11:15:20.786Z,14.10
2018-12-12T11:16:20.757Z,13.60
2018-12-12T11:17:20.749Z,14.20
2018-12-12T11:18:20.781Z,13.40
2018-12-12T11:19:20.752Z,13.40
2018-12-12T11:20:20.733Z,14.10
2018-12-12T11:21:20.707Z,13.40
2018-12-12T11:22:20.738Z,13.80
2018-12-12T11:23:20.683Z,13.30
2018-12-12T11:24:20.724Z,14.30
2018-12-12T11:25:20.686Z,13.30
2018-12-12T11:26:20.706Z,12.90
2018-12-12T11:27:20.639Z,13.40
2018-12-12T11:28:20.646Z,12.70
2018-12-12T11:29:20.674Z,12.80
2018-12-12T11:30:20.619Z,13.10
2018-12-12T11:31:20.606Z,12.60
2018-12-12T11:32:20.626Z,12.90
2018-12-12T11:33:20.590Z,13.10
2018-12-12T11:34:20.576Z,13.00
2018-12-12T11:35:20.582Z,12.70
2018-12-12T11:36:20.592Z,13.10
2018-12-12T11:37:20.529Z,12.50
2018-12-12T11:38:20.532Z,12.90
2018-12-12T11:39:20.515Z,12.30
2018-12-12T11:40:20.523Z,12.80
2018-12-12T11:41:20.541Z,13.30
2018-12-12T11:42:20.482Z,13.30
2018-12-12T11:43:20.486Z,13.30
2018-12-12T11:44:20.471Z,13.40
2018-12-12T11:45:20.486Z,13.30
2018-12-12T11:46:20.477Z,13.50
2018-12-12T11:47:20.456Z,12.00
2018-12-12T11:48:20.430Z,12.60
2018-12-12T11:49:20.402Z,12.80
2018-12-12T11:50:20.390Z,13.30
2018-12-12T11:51:20.414Z,12.60
2018-12-12T11:52:20.382Z,13.10
2018-12-12T11:53:20.364Z,12.10
2018-12-12T11:54:20.337Z,12.40
2018-12-12T11:55:20.349Z,11.50
2018-12-12T11:56:20.366Z,11.90
2018-12-12T11:57:20.374Z,12.40
2018-12-12T11:58:20.297Z,12.40
2018-12-12T11:59:20.292Z,12.80
2018-12-12T12:00:20.283Z,12.10
2018-12-12T12:01:20.354Z,12.80
2018-12-12T12:02:20.273Z,12.40
2018-12-12T12:03:20.280Z,11.80
2018-12-12T12:04:20.232Z,13.20
2018-12-12T12:05:20.216Z,12.80
2018-12-12T12:06:20.211Z,13.70
2018-12-12T12:07:20.194Z,13.00
2018-12-12T12:08:20.236Z,13.00
2018-12-12T12:09:20.178Z,13.50
2018-12-12T12:10:20.172Z,12.30
2018-12-12T12:11:20.159Z,11.80
2018-12-12T12:12:20.143Z,12.20
2018-12-12T12:13:20.163Z,12.10
2018-12-12T12:14:20.119Z,12.10
2018-12-12T12:15:20.112Z,11.40
2018-12-12T12:16:20.110Z,11.40
2018-12-12T12:17:20.151Z,11.00
2018-12-12T12:18:20.081Z,11.80
2018-12-12T12:19:20.064Z,11.60
2018-12-12T12:20:20.058Z,11.60
2018-12-12T12:21:20.046Z,12.70
2018-12-12T12:22:20.065Z,11.80
2018-12-12T12:23:20.019Z,12.00
2018-12-12T12:24:20.017Z,11.70
2018-12-12T12:25:20.035Z,12.10
2018-12-12T12:26:19.987Z,12.40
2018-12-12T12:27:20.068Z,12.40
2018-12-12T12:28:19.966Z,11.70
2018-12-12T12:29:19.963Z,11.90
2018-12-12T12:30:19.947Z,12.00
2018-12-12T12:31:19.974Z,13.00
2018-12-12T12:32:19.966Z,12.00
2018-12-12T12:33:19.919Z,12.60
2018-12-12T12:34:19.917Z,12.70
2018-12-12T12:35:19.887Z,12.60
2018-12-12T12:36:19.943Z,12.00
2018-12-12T12:37:19.869Z,12.10
2018-12-12T12:38:19.868Z,11.10
2018-12-12T12:39:19.887Z,11.00
2018-12-12T12:40:19.860Z,10.20
2018-12-12T12:41:19.825Z,10.70
2018-12-12T12:42:19.811Z,10.40
2018-12-12T12:43:19.806Z,9.70
2018-12-12T12:44:19.835Z,9.90
2018-12-12T12:45:19.780Z,10.70
2018-12-12T12:46:19.768Z,10.30
2018-12-12T12:47:19.752Z,10.10
2018-12-12T12:48:19.745Z,9.70
2018-12-12T12:49:19.813Z,9.90
2018-12-12T12:50:19.727Z,10.50
2018-12-12T12:51:19.760Z,9.40
2018-12-12T12:52:19.698Z,9.20
2018-12-12T12:53:19.701Z,9.40
2018-12-12T12:54:19.717Z,8.90
2018-12-12T12:55:19.695Z,8.60
2018-12-12T12:56:19.706Z,8.90
2018-12-12T12:57:19.656Z,8.60
2018-12-12T12:58:19.663Z,8.80
2018-12-12T12:59:19.628Z,8.30
2018-12-12T13:00:19.622Z,8.20